»·PEaware :: N123KT KAVX-KSAN

N123KT :: KAVX-KSAN

FLIGHT INFORMATION

Flight Status: Arrived
Operator: Privately registered:
United States
More flights under this callsign
Pilot: Anonymous 475 (475)
Aircraft: BEECH AIRCRAFT BONANZA
(BE35)
More flights by this aircraft type
Origin: KAVX Catalina
United States
Destination: KSAN San Diego Intl-Lindbergh
United States
More flights between these airports :: More routes between these airports
Route: +SXC V208 OCN V23 MZB
File this flight plan on PilotEdge
Remarks: TEC route CSTP56 / / I-08
Altitude:
(Current/Filed)
5,000ft
Speed:
(Current/Filed)
160kts
Departed: 07-Oct-18 12:16 PM
Arrived: 07-Oct-18 01:10 PM
Distance/Time
Traveled:
74nm/0:54
Distance/Time
To Go:
Arrived

Flight Plot

Page will automatically refresh every two minutes.


Map Options




Map Legend


Flown Route
Filed Route
Departure Airport
Arrival Airport
Navaid (VOR, NDB)
Fix

Horizontal Profiles

Position Reports

Time Latitude Longitude Heading Altitude Ground
Speed
07-Oct-18 12:08 33.403559 -118.415722 144 1605ft 0kts
07-Oct-18 12:09 33.403557 -118.415721 144 1605ft 0kts
07-Oct-18 12:10 33.403556 -118.415720 144 1605ft 0kts
07-Oct-18 12:11 33.403555 -118.415719 144 1605ft 0kts
07-Oct-18 12:12 33.403553 -118.415718 144 1605ft 0kts
07-Oct-18 12:13 33.403552 -118.415716 144 1605ft 0kts
07-Oct-18 12:14 33.403607 -118.416670 296 1605ft 6kts
07-Oct-18 12:15 33.405568 -118.414125 54 1605ft 17kts
07-Oct-18 12:16 33.407161 -118.411566 340 1605ft 0kts
07-Oct-18 12:17 33.407165 -118.411567 340 1605ft 0kts
07-Oct-18 12:18 33.406670 -118.412946 233 1605ft 42kts
07-Oct-18 12:19 33.391389 -118.436829 229 2478ft 111kts
07-Oct-18 12:20 33.372940 -118.427142 90 3839ft 122kts
07-Oct-18 12:21 33.370619 -118.385828 97 4928ft 135kts
07-Oct-18 12:22 33.363879 -118.333790 97 4997ft 171kts
07-Oct-18 12:23 33.356341 -118.276413 98 4993ft 176kts
07-Oct-18 12:24 33.348738 -118.218570 98 4986ft 177kts
07-Oct-18 12:25 33.341079 -118.160418 98 4985ft 176kts
07-Oct-18 12:26 33.333412 -118.102331 97 4977ft 177kts
07-Oct-18 12:27 33.325682 -118.044295 98 4974ft 177kts
07-Oct-18 12:28 33.317934 -117.986207 98 4976ft 177kts
07-Oct-18 12:29 33.310147 -117.928010 98 5006ft 175kts
07-Oct-18 12:30 33.302359 -117.869988 98 5006ft 177kts
07-Oct-18 12:31 33.294506 -117.811739 98 5006ft 177kts
07-Oct-18 12:32 33.286605 -117.753328 98 4998ft 178kts
07-Oct-18 12:33 33.277980 -117.695228 99 5005ft 178kts
07-Oct-18 12:34 33.269157 -117.636927 99 5001ft 178kts
07-Oct-18 12:35 33.260298 -117.578518 99 5006ft 178kts
07-Oct-18 12:36 33.253034 -117.519885 96 5007ft 178kts
07-Oct-18 12:37 33.245930 -117.461027 96 4999ft 179kts
07-Oct-18 12:38 33.225177 -117.410729 159 5009ft 181kts
07-Oct-18 12:39 33.177313 -117.391069 161 5005ft 181kts
07-Oct-18 12:40 33.129842 -117.371017 161 5004ft 181kts
07-Oct-18 12:41 33.082278 -117.350997 161 5015ft 181kts
07-Oct-18 12:42 33.034670 -117.331022 161 5001ft 178kts
07-Oct-18 12:43 32.988243 -117.311550 161 5000ft 176kts
07-Oct-18 12:44 32.942226 -117.292256 161 5003ft 173kts
07-Oct-18 12:45 32.896848 -117.273268 161 5011ft 172kts
07-Oct-18 12:46 32.851807 -117.252971 160 5025ft 175kts
07-Oct-18 12:47 32.804749 -117.233863 162 5024ft 177kts
07-Oct-18 12:48 32.778271 -117.192438 102 5034ft 174kts
07-Oct-18 12:49 32.767012 -117.138517 101 5002ft 159kts
07-Oct-18 12:50 32.758476 -117.096243 101 5006ft 162kts
07-Oct-18 12:51 32.745865 -117.034489 101 4995ft 164kts
07-Oct-18 12:52 32.735277 -116.982220 101 4991ft 163kts
07-Oct-18 12:53 32.724829 -116.930715 101 4979ft 156kts
07-Oct-18 12:54 32.711884 -116.882376 140 4922ft 158kts
07-Oct-18 12:55 32.675000 -116.884067 191 4060ft 161kts
07-Oct-18 12:56 32.626819 -116.892582 191 3980ft 147kts
07-Oct-18 12:57 32.593187 -116.898500 191 4001ft 145kts
07-Oct-18 12:58 32.554947 -116.909019 240 4001ft 129kts
07-Oct-18 12:59 32.579431 -116.915799 21 4820ft 131kts
07-Oct-18 13:00 32.615132 -116.895968 20 5000ft 134kts
07-Oct-18 13:01 32.624772 -116.856703 90 5000ft 149kts
07-Oct-18 13:02 32.644152 -116.839418 310 4988ft 128kts
07-Oct-18 13:03 32.658052 -116.878165 288 4922ft 137kts
07-Oct-18 13:04 32.669179 -116.925078 287 4132ft 155kts
07-Oct-18 13:05 32.680900 -116.972012 285 3615ft 144kts
07-Oct-18 13:06 32.690935 -117.013430 291 2902ft 122kts
07-Oct-18 13:07 32.699750 -117.048825 289 2643ft 114kts
07-Oct-18 13:08 32.708145 -117.083631 278 1998ft 87kts
07-Oct-18 13:09 32.714851 -117.111881 282 1543ft 90kts
07-Oct-18 13:10 32.721950 -117.140477 280 838ft 90kts
07-Oct-18 13:11 32.728229 -117.166724 277 368ft 74kts
07-Oct-18 13:12 32.733105 -117.187859 294 18ft 13kts
07-Oct-18 13:13 32.734046 -117.186813 108 18ft 10kts
07-Oct-18 13:14 32.733081 -117.182995 106 18ft 13kts
07-Oct-18 13:15 32.733604 -117.179516 13 18ft 13kts
07-Oct-18 13:16 32.733590 -117.179149 200 18ft 0kts
07-Oct-18 13:17 32.733588 -117.179150 200 18ft 0kts
07-Oct-18 13:18 32.733587 -117.179151 200 18ft 0kts
07-Oct-18 13:19 32.733587 -117.179151 200 18ft 0kts

Navigation Log

Ident Type
Flight plan parsing failed, navigation log unavailable